Albert, New Mexico
Current Conditions -  °F | °C
As of 6:53 PM on Saturday 22 Nov 2014 (Local Time) from KTCC Reporting Station
NA  
Wind Chill: 13°   Ceiling: NA
Heat Index: 13°   Visibility: 10mi
Dew Point: -8°   Wind: 17mph
Humidity: 22%   Direction: 260°W
Pressure: 29.64"   Gusts: NA
Location:  35.7181°N, 103.591°W
Report Text: KTCC 230153Z AUTO 26015KT 10SM 13/M08 A2964 RMK AO2 SLP020 T01331083
Loading
Personal Weather Stations






























Interactive Weather Map New forecast layout! Learn more

10-Day Weather Forecast

Advertisements
Track Severe Weather on mobile